createdAt,value
2018-12-03T00:00:22.455Z,13.50
2018-12-03T00:02:53.846Z,13.50
2018-12-03T00:05:22.574Z,13.50
2018-12-03T00:07:51.043Z,13.40
2018-12-03T00:10:19.544Z,13.50
2018-12-03T00:12:48.003Z,13.40
2018-12-03T00:15:16.543Z,13.30
2018-12-03T00:17:44.995Z,13.30
2018-12-03T00:20:13.477Z,13.30
2018-12-03T00:22:41.938Z,13.30
2018-12-03T00:25:10.455Z,13.30
2018-12-03T00:27:38.911Z,13.30
2018-12-03T00:30:09.466Z,13.30
2018-12-03T00:32:38.231Z,13.30
2018-12-03T00:35:08.345Z,13.30
2018-12-03T00:37:37.038Z,13.30
2018-12-03T00:40:06.666Z,13.30
2018-12-03T00:42:35.210Z,13.30
2018-12-03T00:45:03.770Z,13.30
2018-12-03T00:47:32.182Z,13.40
2018-12-03T00:50:00.707Z,13.30
2018-12-03T00:52:29.165Z,13.40
2018-12-03T00:54:57.640Z,13.40
2018-12-03T00:57:26.195Z,13.40
2018-12-03T00:59:54.719Z,13.40
2018-12-03T01:02:25.667Z,13.40
2018-12-03T01:04:54.604Z,13.40
2018-12-03T01:07:23.105Z,13.50
2018-12-03T01:09:52.647Z,13.50
2018-12-03T01:12:21.134Z,13.50
2018-12-03T01:14:49.603Z,13.50
2018-12-03T01:17:18.071Z,13.50
2018-12-03T01:19:46.576Z,13.50
2018-12-03T01:22:15.023Z,13.60
2018-12-03T01:24:43.523Z,13.60
2018-12-03T01:27:11.971Z,13.60
2018-12-03T01:29:40.496Z,13.60
2018-12-03T01:32:08.676Z,13.60
2018-12-03T01:34:37.185Z,13.60
2018-12-03T01:37:05.659Z,13.70
2018-12-03T01:39:34.240Z,13.60
2018-12-03T01:42:02.694Z,13.70
2018-12-03T01:44:31.183Z,13.70
2018-12-03T01:46:59.650Z,13.70
2018-12-03T01:49:28.127Z,13.70
2018-12-03T01:51:56.619Z,13.70
2018-12-03T01:54:25.106Z,13.70
2018-12-03T01:56:53.591Z,13.70
2018-12-03T01:59:22.051Z,13.70
2018-12-03T02:01:50.559Z,13.70
2018-12-03T02:04:19.016Z,13.70
2018-12-03T02:06:47.490Z,13.70
2018-12-03T02:09:15.977Z,13.70
2018-12-03T02:11:44.471Z,13.70
2018-12-03T02:14:13.054Z,13.70
2018-12-03T02:16:41.542Z,13.70
2018-12-03T02:19:10.012Z,13.70
2018-12-03T02:21:38.534Z,13.70
2018-12-03T02:24:06.971Z,13.70
2018-12-03T02:26:36.483Z,13.70
2018-12-03T02:29:05.207Z,13.70
2018-12-03T02:31:33.696Z,13.70
2018-12-03T02:34:02.131Z,13.80
2018-12-03T02:36:30.612Z,13.70
2018-12-03T02:38:59.067Z,13.80
2018-12-03T02:41:27.571Z,13.70
2018-12-03T02:43:56.175Z,13.70
2018-12-03T02:46:24.640Z,13.80
2018-12-03T02:48:53.123Z,13.80
2018-12-03T02:51:21.607Z,13.80
2018-12-03T02:53:50.076Z,13.80
2018-12-03T02:56:18.596Z,13.80
2018-12-03T02:58:47.047Z,13.80
2018-12-03T03:01:15.576Z,13.80
2018-12-03T03:03:44.004Z,13.80
2018-12-03T03:06:12.516Z,13.90
2018-12-03T03:08:40.976Z,13.90
2018-12-03T03:11:09.463Z,13.90
2018-12-03T03:13:37.934Z,13.90
2018-12-03T03:16:06.443Z,13.90
2018-12-03T03:18:34.943Z,13.90
2018-12-03T03:21:03.414Z,13.90
2018-12-03T03:23:31.879Z,13.90
2018-12-03T03:26:00.342Z,13.90
2018-12-03T03:28:29.869Z,13.90
2018-12-03T03:30:58.332Z,13.90
2018-12-03T03:33:26.885Z,13.80
2018-12-03T03:35:55.292Z,13.80
2018-12-03T03:38:23.779Z,13.80
2018-12-03T03:40:52.377Z,13.80
2018-12-03T03:43:20.862Z,13.80
2018-12-03T03:45:49.319Z,13.70
2018-12-03T03:48:17.811Z,13.80
2018-12-03T03:50:46.292Z,13.70
2018-12-03T03:53:14.784Z,13.70
2018-12-03T03:55:43.243Z,13.70
2018-12-03T03:58:11.735Z,13.60
2018-12-03T04:00:40.244Z,13.60
2018-12-03T04:03:08.868Z,13.60
2018-12-03T04:05:37.269Z,13.60
2018-12-03T04:08:05.816Z,13.60
2018-12-03T04:10:34.291Z,13.50
2018-12-03T04:13:02.729Z,13.50
2018-12-03T04:15:31.215Z,13.50
2018-12-03T04:17:59.699Z,13.40
2018-12-03T04:20:28.180Z,13.40
2018-12-03T04:22:56.647Z,13.50
2018-12-03T04:25:25.149Z,13.50
2018-12-03T04:27:53.618Z,13.50
2018-12-03T04:30:22.956Z,13.50
2018-12-03T04:32:52.457Z,13.50
2018-12-03T04:35:21.121Z,13.60
2018-12-03T04:37:49.655Z,13.60
2018-12-03T04:40:18.095Z,13.60
2018-12-03T04:42:46.556Z,13.50
2018-12-03T04:45:16.237Z,13.50
2018-12-03T04:47:45.057Z,13.60
2018-12-03T04:50:14.747Z,13.60
2018-12-03T04:52:43.259Z,13.60
2018-12-03T04:55:12.406Z,13.60
2018-12-03T04:57:40.934Z,13.60
2018-12-03T05:00:14.552Z,13.60
2018-12-03T05:02:43.653Z,13.60
2018-12-03T05:05:12.164Z,13.60
2018-12-03T05:07:40.698Z,13.60
2018-12-03T05:10:12.424Z,13.60
2018-12-03T05:12:41.146Z,13.50
2018-12-03T05:15:10.744Z,13.60
2018-12-03T05:17:39.718Z,13.60
2018-12-03T05:20:09.749Z,13.60
2018-12-03T05:22:38.539Z,13.50
2018-12-03T05:25:09.490Z,13.50
2018-12-03T05:27:38.001Z,13.50
2018-12-03T05:30:10.453Z,13.50
2018-12-03T05:32:39.432Z,13.50
2018-12-03T05:35:12.034Z,13.40
2018-12-03T05:37:40.761Z,13.40
2018-12-03T05:40:12.962Z,13.40
2018-12-03T05:42:41.433Z,13.40
2018-12-03T05:45:10.576Z,13.40
2018-12-03T05:47:39.025Z,13.30
2018-12-03T05:50:10.950Z,13.30
2018-12-03T05:52:39.373Z,13.30
2018-12-03T05:55:09.423Z,13.30
2018-12-03T05:57:37.882Z,13.40
2018-12-03T06:00:17.473Z,13.40
2018-12-03T06:02:45.902Z,13.40
2018-12-03T06:05:15.117Z,13.40
2018-12-03T06:07:43.622Z,13.40
2018-12-03T06:10:15.485Z,13.50
2018-12-03T06:12:43.937Z,13.40
2018-12-03T06:15:13.646Z,13.40
2018-12-03T06:17:42.134Z,13.40
2018-12-03T06:20:12.027Z,13.40
2018-12-03T06:22:40.513Z,13.40
2018-12-03T06:25:11.523Z,13.50
2018-12-03T06:27:40.049Z,13.50
2018-12-03T06:30:17.902Z,13.50
2018-12-03T06:32:46.429Z,13.50
2018-12-03T06:35:15.733Z,13.50
2018-12-03T06:37:44.295Z,13.50
2018-12-03T06:40:19.145Z,13.40
2018-12-03T06:42:47.612Z,13.40
2018-12-03T06:45:18.477Z,13.40
2018-12-03T06:47:50.001Z,13.40
2018-12-03T06:50:18.536Z,13.50
2018-12-03T06:52:47.013Z,13.50
2018-12-03T06:55:15.424Z,13.50
2018-12-03T06:57:43.948Z,13.60
2018-12-03T07:00:14.861Z,13.60
2018-12-03T07:02:43.897Z,13.60
2018-12-03T07:05:12.638Z,13.70
2018-12-03T07:07:41.954Z,13.60
2018-12-03T07:10:19.345Z,13.60
2018-12-03T07:12:50.331Z,13.60
2018-12-03T07:15:20.174Z,13.50
2018-12-03T07:17:49.511Z,13.50
2018-12-03T07:20:17.987Z,13.50
2018-12-03T07:22:46.454Z,13.50
2018-12-03T07:25:14.978Z,13.50
2018-12-03T07:27:43.436Z,13.50
2018-12-03T07:30:19.499Z,13.50
2018-12-03T07:32:48.951Z,13.50
2018-12-03T07:35:18.328Z,13.30
2018-12-03T07:37:47.067Z,13.20
2018-12-03T07:40:15.626Z,13.10
2018-12-03T07:42:44.184Z,13.00
2018-12-03T07:45:14.222Z,13.00
2018-12-03T07:47:42.690Z,13.00
2018-12-03T07:50:12.399Z,13.00
2018-12-03T07:52:41.051Z,13.00
2018-12-03T07:55:17.636Z,13.00
2018-12-03T07:57:54.470Z,13.00
2018-12-03T08:00:25.252Z,13.00
2018-12-03T08:02:53.775Z,13.00
2018-12-03T08:05:22.238Z,13.00
2018-12-03T08:07:50.820Z,13.00
2018-12-03T08:10:19.372Z,13.10
2018-12-03T08:12:48.922Z,13.10
2018-12-03T08:22:47.975Z,13.20
2018-12-03T08:25:15.538Z,13.10
2018-12-03T08:27:43.007Z,13.10
2018-12-03T08:30:10.595Z,13.10
2018-12-03T08:32:38.080Z,13.10
2018-12-03T08:35:06.995Z,13.10
2018-12-03T08:37:34.472Z,13.10
2018-12-03T08:40:01.962Z,13.20
2018-12-03T08:42:29.439Z,13.20
2018-12-03T08:44:56.916Z,13.20
2018-12-03T08:47:24.409Z,13.20
2018-12-03T08:49:51.890Z,13.10
2018-12-03T08:52:19.348Z,13.20
2018-12-03T08:54:46.825Z,13.20
2018-12-03T08:57:14.296Z,13.20
2018-12-03T08:59:41.774Z,13.30
2018-12-03T09:02:09.241Z,13.30
2018-12-03T09:04:36.763Z,13.30
2018-12-03T09:07:04.412Z,13.40
2018-12-03T09:09:31.904Z,13.40
2018-12-03T09:11:59.372Z,13.50
2018-12-03T09:14:27.403Z,13.60
2018-12-03T09:16:54.908Z,13.60
2018-12-03T09:19:22.387Z,13.60
2018-12-03T09:21:49.851Z,13.60
2018-12-03T09:24:17.335Z,13.70
2018-12-03T09:26:44.806Z,13.70
2018-12-03T09:29:12.271Z,13.70
2018-12-03T09:31:39.824Z,13.70
2018-12-03T09:34:07.278Z,13.70
2018-12-03T09:36:34.767Z,13.70
2018-12-03T09:39:02.479Z,13.70
2018-12-03T09:41:30.078Z,13.70
2018-12-03T09:43:57.559Z,13.70
2018-12-03T09:46:25.043Z,13.60
2018-12-03T09:48:55.088Z,13.60
2018-12-03T09:51:26.511Z,13.50
2018-12-03T09:53:53.982Z,13.40
2018-12-03T09:56:25.689Z,13.30
2018-12-03T09:58:53.152Z,13.30
2018-12-03T10:01:20.629Z,13.20
2018-12-03T10:03:48.091Z,13.20
2018-12-03T10:06:15.592Z,13.10
2018-12-03T10:08:43.056Z,13.20
2018-12-03T10:11:10.526Z,13.10
2018-12-03T10:13:37.987Z,13.10
2018-12-03T10:16:05.464Z,13.20
2018-12-03T10:18:32.928Z,13.20
2018-12-03T10:21:00.398Z,13.20
2018-12-03T10:23:27.899Z,13.20
2018-12-03T10:25:55.354Z,13.20
2018-12-03T10:28:22.838Z,13.20
2018-12-03T10:30:50.306Z,13.30
2018-12-03T10:33:17.778Z,13.30
2018-12-03T10:35:45.324Z,13.30
2018-12-03T10:38:12.828Z,13.40
2018-12-03T10:40:40.295Z,13.50
2018-12-03T10:43:08.741Z,13.60
2018-12-03T10:45:36.228Z,13.70
2018-12-03T10:48:03.774Z,13.70
2018-12-03T10:50:31.247Z,13.80
2018-12-03T10:53:00.006Z,13.70
2018-12-03T10:55:27.663Z,13.80
2018-12-03T10:57:55.306Z,13.90
2018-12-03T11:00:24.750Z,13.90
2018-12-03T11:03:09.106Z,13.90
2018-12-03T11:05:42.205Z,13.90
2018-12-03T11:08:09.754Z,13.90
2018-12-03T11:10:37.291Z,14.00
2018-12-03T11:13:04.847Z,14.00
2018-12-03T11:15:32.463Z,14.10
2018-12-03T11:18:00.187Z,14.10
2018-12-03T11:20:27.666Z,14.20
2018-12-03T11:22:55.206Z,14.30
2018-12-03T11:25:26.150Z,14.40
2018-12-03T11:27:53.959Z,14.40
2018-12-03T11:30:21.519Z,14.40
2018-12-03T11:32:49.031Z,14.40
2018-12-03T11:35:20.488Z,14.30
2018-12-03T11:37:47.956Z,14.40
2018-12-03T11:40:17.484Z,14.30
2018-12-03T11:42:44.947Z,14.30
2018-12-03T11:45:12.604Z,14.30
2018-12-03T11:47:40.066Z,14.20
2018-12-03T11:50:08.776Z,14.30
2018-12-03T11:52:36.246Z,14.20
2018-12-03T11:55:05.471Z,14.30
2018-12-03T11:57:32.957Z,14.40
2018-12-03T12:00:00.427Z,14.40
2018-12-03T12:02:27.915Z,14.50
2018-12-03T12:04:55.380Z,14.50
2018-12-03T12:07:22.871Z,14.60
2018-12-03T12:09:50.318Z,14.70
2018-12-03T12:12:17.804Z,14.70
2018-12-03T12:14:45.273Z,14.80
2018-12-03T12:17:12.756Z,14.70
2018-12-03T12:19:40.215Z,14.70
2018-12-03T12:22:07.800Z,14.60
2018-12-03T12:24:36.435Z,14.70
2018-12-03T12:27:04.495Z,14.70
2018-12-03T12:29:31.961Z,14.70
2018-12-03T12:31:59.442Z,14.60
2018-12-03T12:34:26.901Z,14.50
2018-12-03T12:36:54.367Z,14.40
2018-12-03T12:39:21.854Z,14.40
2018-12-03T12:41:49.336Z,14.40
2018-12-03T12:44:16.820Z,14.40
2018-12-03T12:46:44.283Z,14.40
2018-12-03T12:49:11.763Z,14.30
2018-12-03T12:51:39.227Z,14.30
2018-12-03T12:54:06.784Z,14.20
2018-12-03T12:56:34.251Z,14.20
2018-12-03T12:59:01.791Z,14.20
2018-12-03T13:01:29.253Z,14.20
2018-12-03T13:03:56.741Z,14.10
2018-12-03T13:06:24.234Z,14.10
2018-12-03T13:08:51.699Z,14.10
2018-12-03T13:11:19.175Z,14.10
2018-12-03T13:13:46.643Z,14.10
2018-12-03T13:16:14.125Z,14.20
2018-12-03T13:18:41.577Z,14.20
2018-12-03T13:21:09.059Z,14.20
2018-12-03T13:23:36.523Z,14.20
2018-12-03T13:26:04.374Z,14.30
2018-12-03T13:28:31.872Z,14.20
2018-12-03T13:30:59.350Z,14.30
2018-12-03T13:33:26.862Z,14.30
2018-12-03T13:35:54.340Z,14.30
2018-12-03T13:38:21.807Z,14.30
2018-12-03T13:40:49.291Z,14.30
2018-12-03T13:43:16.766Z,14.30
2018-12-03T13:45:44.341Z,14.40
2018-12-03T13:48:11.822Z,14.50
2018-12-03T13:50:39.315Z,14.50
2018-12-03T13:53:06.791Z,14.60
2018-12-03T13:55:34.248Z,14.60
2018-12-03T13:58:01.734Z,14.70
2018-12-03T14:00:29.211Z,14.70
2018-12-03T14:02:56.682Z,14.70
2018-12-03T14:05:24.155Z,14.70
2018-12-03T14:07:51.829Z,14.60
2018-12-03T14:10:19.320Z,14.60
2018-12-03T14:12:46.946Z,14.50
2018-12-03T14:15:17.262Z,14.50
2018-12-03T14:17:44.849Z,14.40
2018-12-03T14:20:12.684Z,14.40
2018-12-03T14:22:40.168Z,14.30
2018-12-03T14:25:07.791Z,14.30
2018-12-03T14:27:35.292Z,14.20
2018-12-03T14:30:03.803Z,14.20
2018-12-03T14:32:31.279Z,14.20
2018-12-03T14:34:58.863Z,14.20
2018-12-03T14:37:26.396Z,14.20
2018-12-03T14:39:53.933Z,14.20
2018-12-03T14:42:21.505Z,14.20
2018-12-03T14:44:49.363Z,14.10
2018-12-03T14:47:16.931Z,14.10
2018-12-03T14:49:44.433Z,14.10
2018-12-03T14:52:11.892Z,14.20
2018-12-03T14:54:39.376Z,14.10
2018-12-03T14:57:06.863Z,14.10
2018-12-03T14:59:34.360Z,14.10
2018-12-03T15:02:01.877Z,14.10
2018-12-03T15:04:29.358Z,14.10
2018-12-03T15:06:56.848Z,14.10
2018-12-03T15:09:24.302Z,14.10
2018-12-03T15:11:51.787Z,14.10
2018-12-03T15:14:19.248Z,14.10
2018-12-03T15:16:46.727Z,14.00
2018-12-03T15:19:14.213Z,14.00
2018-12-03T15:21:41.691Z,14.00
2018-12-03T15:24:13.421Z,14.00
2018-12-03T15:26:38.719Z,14.00
2018-12-03T15:29:06.430Z,14.00
2018-12-03T15:31:33.960Z,13.90
2018-12-03T15:34:01.517Z,13.90
2018-12-03T15:36:28.980Z,13.90
2018-12-03T15:38:56.467Z,14.00
2018-12-03T15:41:23.935Z,14.00
2018-12-03T15:43:51.432Z,14.00
2018-12-03T15:46:18.932Z,14.00
2018-12-03T15:48:46.464Z,14.00
2018-12-03T15:51:13.943Z,14.00
2018-12-03T15:53:41.445Z,14.00
2018-12-03T15:56:08.919Z,14.00
2018-12-03T15:58:36.404Z,14.00
2018-12-03T16:01:03.906Z,14.00
2018-12-03T16:03:31.388Z,13.90
2018-12-03T16:05:58.849Z,13.90
2018-12-03T16:08:26.342Z,13.90
2018-12-03T16:10:53.820Z,13.90
2018-12-03T16:13:21.310Z,13.90
2018-12-03T16:15:48.796Z,13.90
2018-12-03T16:18:16.279Z,13.90
2018-12-03T16:20:43.750Z,13.90
2018-12-03T16:23:11.247Z,13.90
2018-12-03T16:25:38.728Z,13.90
2018-12-03T16:28:06.243Z,13.90
2018-12-03T16:30:33.799Z,13.80
2018-12-03T16:33:01.258Z,13.80
2018-12-03T16:35:28.746Z,13.70
2018-12-03T16:37:56.242Z,13.70
2018-12-03T16:40:23.765Z,13.70
2018-12-03T16:42:51.287Z,13.60
2018-12-03T16:45:18.774Z,13.60
2018-12-03T16:47:46.240Z,13.60
2018-12-03T16:50:13.885Z,13.60
2018-12-03T16:52:41.372Z,13.50
2018-12-03T16:55:08.861Z,13.50
2018-12-03T16:57:36.338Z,13.50
2018-12-03T17:00:06.433Z,13.50
2018-12-03T17:02:33.968Z,13.50
2018-12-03T17:05:01.449Z,13.50
2018-12-03T17:07:29.938Z,13.40
2018-12-03T17:09:57.425Z,13.50
2018-12-03T17:12:24.899Z,13.50
2018-12-03T17:14:52.371Z,13.50
2018-12-03T17:17:19.850Z,13.50
2018-12-03T17:19:47.318Z,13.50
2018-12-03T17:22:14.810Z,13.50
2018-12-03T17:24:42.362Z,13.50
2018-12-03T17:27:09.847Z,13.50
2018-12-03T17:29:37.319Z,13.50
2018-12-03T17:32:04.886Z,13.50
2018-12-03T17:34:32.355Z,13.50
2018-12-03T17:37:00.098Z,13.50
2018-12-03T17:39:27.607Z,13.50
2018-12-03T17:41:55.169Z,13.50
2018-12-03T17:44:22.639Z,13.40
2018-12-03T17:46:50.102Z,13.40
2018-12-03T17:49:17.570Z,13.40
2018-12-03T17:51:45.082Z,13.40
2018-12-03T17:54:12.563Z,13.30
2018-12-03T17:56:40.027Z,13.30
2018-12-03T17:59:07.482Z,13.30
2018-12-03T18:01:34.963Z,13.30
2018-12-03T18:04:02.455Z,13.20
2018-12-03T18:06:29.942Z,13.20
2018-12-03T18:08:57.412Z,13.20
2018-12-03T18:11:24.962Z,13.20
2018-12-03T18:13:52.431Z,13.20
2018-12-03T18:16:19.909Z,13.20
2018-12-03T18:18:47.378Z,13.20
2018-12-03T18:21:14.863Z,13.20
2018-12-03T18:23:42.366Z,13.20
2018-12-03T18:26:09.844Z,13.20
2018-12-03T18:28:37.324Z,13.20
2018-12-03T18:31:04.793Z,13.20
2018-12-03T18:33:32.302Z,13.30
2018-12-03T18:35:59.766Z,13.30
2018-12-03T18:38:27.328Z,13.30
2018-12-03T18:40:54.995Z,13.30
2018-12-03T18:43:22.482Z,13.30
2018-12-03T18:45:49.951Z,13.30
2018-12-03T18:48:17.508Z,13.40
2018-12-03T18:50:45.012Z,13.40
2018-12-03T18:53:12.528Z,13.40
2018-12-03T18:55:40.023Z,13.40
2018-12-03T18:58:07.756Z,13.40
2018-12-03T19:00:35.335Z,13.40
2018-12-03T19:03:02.790Z,13.40
2018-12-03T19:05:30.271Z,13.40
2018-12-03T19:07:57.741Z,13.40
2018-12-03T19:10:25.219Z,13.30
2018-12-03T19:12:52.702Z,13.30
2018-12-03T19:15:20.176Z,13.20
2018-12-03T19:17:47.647Z,13.20
2018-12-03T19:20:15.169Z,13.20
2018-12-03T19:22:42.631Z,13.20
2018-12-03T19:25:10.111Z,13.20
2018-12-03T19:27:37.579Z,13.10
2018-12-03T19:30:07.203Z,13.10
2018-12-03T19:32:34.684Z,13.10
2018-12-03T19:35:02.139Z,13.20
2018-12-03T19:37:29.618Z,13.20
2018-12-03T19:39:57.092Z,13.20
2018-12-03T19:42:24.606Z,13.20
2018-12-03T19:44:52.083Z,13.30
2018-12-03T19:47:19.708Z,13.30
2018-12-03T19:49:47.178Z,13.30
2018-12-03T19:52:14.674Z,13.30
2018-12-03T19:54:42.234Z,13.30
2018-12-03T19:57:09.737Z,13.20
2018-12-03T19:59:37.283Z,13.20
2018-12-03T20:02:04.783Z,13.30
2018-12-03T20:04:37.827Z,13.20
2018-12-03T20:07:05.339Z,13.20
2018-12-03T20:09:32.808Z,13.30
2018-12-03T20:12:00.289Z,13.20
2018-12-03T20:14:29.272Z,13.10
2018-12-03T20:16:56.878Z,13.10
2018-12-03T20:19:24.378Z,13.20
2018-12-03T20:21:51.850Z,13.10
2018-12-03T20:24:19.715Z,13.10
2018-12-03T20:26:47.331Z,13.10
2018-12-03T20:29:14.967Z,13.20
2018-12-03T20:31:44.143Z,13.10
2018-12-03T20:34:11.754Z,13.20
2018-12-03T20:36:39.325Z,13.20
2018-12-03T20:39:10.855Z,13.20
2018-12-03T20:41:38.419Z,13.20
2018-12-03T20:44:07.622Z,13.20
2018-12-03T20:46:36.384Z,13.20
2018-12-03T20:49:06.989Z,13.20
2018-12-03T20:51:34.541Z,13.20
2018-12-03T20:54:02.124Z,13.20
2018-12-03T20:56:29.623Z,13.10
2018-12-03T20:58:57.195Z,13.00
2018-12-03T21:01:24.692Z,13.00
2018-12-03T21:03:52.275Z,12.90
2018-12-03T21:06:19.790Z,12.80
2018-12-03T21:08:47.246Z,12.80
2018-12-03T21:11:14.748Z,12.80
2018-12-03T21:13:42.229Z,12.80
2018-12-03T21:16:09.703Z,12.80
2018-12-03T21:18:37.203Z,12.80
2018-12-03T21:21:04.938Z,12.80
2018-12-03T21:23:32.406Z,12.80
2018-12-03T21:25:59.893Z,12.80
2018-12-03T21:28:27.366Z,12.90
2018-12-03T21:30:54.860Z,12.90
2018-12-03T21:33:22.399Z,12.90
2018-12-03T21:35:49.867Z,12.90
2018-12-03T21:38:17.349Z,12.90
2018-12-03T21:40:44.803Z,12.90
2018-12-03T21:43:12.296Z,12.90
2018-12-03T21:45:39.786Z,12.90
2018-12-03T21:48:07.268Z,12.90
2018-12-03T21:50:34.735Z,13.00
2018-12-03T21:53:02.206Z,13.00
2018-12-03T21:55:29.675Z,12.90
2018-12-03T21:57:57.228Z,12.90
2018-12-03T22:00:24.762Z,12.90
2018-12-03T22:02:52.258Z,12.90
2018-12-03T22:05:19.714Z,12.90
2018-12-03T22:07:47.181Z,12.90
2018-12-03T22:10:14.734Z,12.90
2018-12-03T22:12:42.195Z,13.00
2018-12-03T22:15:09.751Z,12.90
2018-12-03T22:17:37.223Z,12.90
2018-12-03T22:20:06.878Z,12.90
2018-12-03T22:22:34.342Z,12.90
2018-12-03T22:25:01.827Z,12.90
2018-12-03T22:27:29.305Z,12.90
2018-12-03T22:29:56.803Z,12.80
2018-12-03T22:32:24.292Z,12.80
2018-12-03T22:34:51.766Z,12.80
2018-12-03T22:37:19.238Z,12.80
2018-12-03T22:39:46.939Z,12.80
2018-12-03T22:42:14.411Z,12.80
2018-12-03T22:44:41.896Z,12.80
2018-12-03T22:47:09.354Z,12.80
2018-12-03T22:49:36.868Z,12.70
2018-12-03T22:52:04.395Z,12.70
2018-12-03T22:54:31.871Z,12.70
2018-12-03T22:56:59.389Z,12.70
2018-12-03T22:59:26.847Z,12.60
2018-12-03T23:01:54.367Z,12.50
2018-12-03T23:04:21.886Z,12.50
2018-12-03T23:06:49.367Z,12.50
2018-12-03T23:09:16.833Z,12.40
2018-12-03T23:11:44.314Z,12.50
2018-12-03T23:14:11.823Z,12.40
2018-12-03T23:16:39.403Z,12.40
2018-12-03T23:19:06.871Z,12.30
2018-12-03T23:21:34.363Z,12.30
2018-12-03T23:24:01.833Z,12.30
2018-12-03T23:26:29.333Z,12.30
2018-12-03T23:28:56.804Z,12.30
2018-12-03T23:31:24.263Z,12.30
2018-12-03T23:33:51.735Z,12.20
2018-12-03T23:36:19.358Z,12.30
2018-12-03T23:38:47.029Z,12.20
2018-12-03T23:41:14.500Z,12.20
2018-12-03T23:43:42.032Z,12.20
2018-12-03T23:46:09.519Z,12.10
2018-12-03T23:48:37.009Z,11.90
2018-12-03T23:51:04.469Z,11.90
2018-12-03T23:53:31.971Z,11.80
2018-12-03T23:55:59.543Z,11.70
2018-12-03T23:58:27.007Z,11.70
